sensor_id;sensor_type;location;lat;lon;timestamp;temperature;humidity
41664;DHT22;27353;50.906;7.248;2024-02-26T00:02:15;7.30;99.90
41664;DHT22;27353;50.906;7.248;2024-02-26T00:04:41;7.30;99.90
41664;DHT22;27353;50.906;7.248;2024-02-26T00:07:07;7.30;99.90
41664;DHT22;27353;50.906;7.248;2024-02-26T00:09:32;7.20;99.90
41664;DHT22;27353;50.906;7.248;2024-02-26T00:12:02;7.20;99.90
41664;DHT22;27353;50.906;7.248;2024-02-26T00:14:29;7.20;99.90
41664;DHT22;27353;50.906;7.248;2024-02-26T00:16:55;7.20;99.90
41664;DHT22;27353;50.906;7.248;2024-02-26T00:19:20;7.10;99.90
41664;DHT22;27353;50.906;7.248;2024-02-26T00:21:46;7.10;99.90
41664;DHT22;27353;50.906;7.248;2024-02-26T00:24:12;7.10;99.90
41664;DHT22;27353;50.906;7.248;2024-02-26T00:26:37;7.10;99.90
41664;DHT22;27353;50.906;7.248;2024-02-26T00:29:03;7.10;99.90
41664;DHT22;27353;50.906;7.248;2024-02-26T00:31:28;7.10;99.90
41664;DHT22;27353;50.906;7.248;2024-02-26T00:33:54;7.00;99.90
41664;DHT22;27353;50.906;7.248;2024-02-26T00:36:19;6.90;99.90
41664;DHT22;27353;50.906;7.248;2024-02-26T00:38:45;6.90;99.90
41664;DHT22;27353;50.906;7.248;2024-02-26T00:41:16;6.90;99.90
41664;DHT22;27353;50.906;7.248;2024-02-26T00:43:42;6.90;99.90
41664;DHT22;27353;50.906;7.248;2024-02-26T00:46:08;6.90;99.90
41664;DHT22;27353;50.906;7.248;2024-02-26T00:48:33;6.80;99.90
41664;DHT22;27353;50.906;7.248;2024-02-26T00:50:59;6.80;99.90
41664;DHT22;27353;50.906;7.248;2024-02-26T00:53:24;6.80;99.90
41664;DHT22;27353;50.906;7.248;2024-02-26T00:55:50;6.80;99.90
41664;DHT22;27353;50.906;7.248;2024-02-26T00:58:16;6.80;99.90
41664;DHT22;27353;50.906;7.248;2024-02-26T01:00:42;6.80;99.90
41664;DHT22;27353;50.906;7.248;2024-02-26T01:03:07;6.70;99.90
41664;DHT22;27353;50.906;7.248;2024-02-26T01:05:33;6.80;99.90
41664;DHT22;27353;50.906;7.248;2024-02-26T01:07:59;6.80;99.90
41664;DHT22;27353;50.906;7.248;2024-02-26T01:10:24;6.80;99.90
41664;DHT22;27353;50.906;7.248;2024-02-26T01:12:50;6.70;99.90
41664;DHT22;27353;50.906;7.248;2024-02-26T01:15:15;6.70;99.90
41664;DHT22;27353;50.906;7.248;2024-02-26T01:17:41;6.70;99.90
41664;DHT22;27353;50.906;7.248;2024-02-26T01:20:07;6.70;99.90
41664;DHT22;27353;50.906;7.248;2024-02-26T01:22:34;6.60;99.90
41664;DHT22;27353;50.906;7.248;2024-02-26T01:25:00;6.60;99.90
41664;DHT22;27353;50.906;7.248;2024-02-26T01:27:25;6.50;99.90
41664;DHT22;27353;50.906;7.248;2024-02-26T01:29:52;6.50;99.90
41664;DHT22;27353;50.906;7.248;2024-02-26T01:32:18;6.50;99.90
41664;DHT22;27353;50.906;7.248;2024-02-26T01:34:45;6.40;99.90
41664;DHT22;27353;50.906;7.248;2024-02-26T01:37:10;6.40;99.90
41664;DHT22;27353;50.906;7.248;2024-02-26T01:39:36;6.40;99.90
41664;DHT22;27353;50.906;7.248;2024-02-26T01:42:02;6.40;99.90
41664;DHT22;27353;50.906;7.248;2024-02-26T01:44:27;6.30;99.90
41664;DHT22;27353;50.906;7.248;2024-02-26T01:46:53;6.30;99.90
41664;DHT22;27353;50.906;7.248;2024-02-26T01:49:19;6.30;99.90
41664;DHT22;27353;50.906;7.248;2024-02-26T01:51:45;6.30;99.90
41664;DHT22;27353;50.906;7.248;2024-02-26T01:54:11;6.20;99.90
41664;DHT22;27353;50.906;7.248;2024-02-26T01:56:39;6.30;99.90
41664;DHT22;27353;50.906;7.248;2024-02-26T01:59:05;6.20;99.90
41664;DHT22;27353;50.906;7.248;2024-02-26T02:01:33;6.20;99.90
41664;DHT22;27353;50.906;7.248;2024-02-26T02:04:00;6.20;99.90
41664;DHT22;27353;50.906;7.248;2024-02-26T02:06:27;6.30;99.90
41664;DHT22;27353;50.906;7.248;2024-02-26T02:08:54;6.30;99.90
41664;DHT22;27353;50.906;7.248;2024-02-26T02:11:20;6.20;99.90
41664;DHT22;27353;50.906;7.248;2024-02-26T02:13:46;6.30;99.90
41664;DHT22;27353;50.906;7.248;2024-02-26T02:16:12;6.20;99.90
41664;DHT22;27353;50.906;7.248;2024-02-26T02:18:38;6.20;99.90
41664;DHT22;27353;50.906;7.248;2024-02-26T02:21:04;6.20;99.90
41664;DHT22;27353;50.906;7.248;2024-02-26T02:23:29;6.20;99.90
41664;DHT22;27353;50.906;7.248;2024-02-26T02:25:56;6.20;99.90
41664;DHT22;27353;50.906;7.248;2024-02-26T02:28:23;6.20;99.90
41664;DHT22;27353;50.906;7.248;2024-02-26T02:30:50;6.20;99.90
41664;DHT22;27353;50.906;7.248;2024-02-26T02:33:16;6.10;99.90
41664;DHT22;27353;50.906;7.248;2024-02-26T02:35:42;6.20;99.90
41664;DHT22;27353;50.906;7.248;2024-02-26T02:38:08;6.20;99.90
41664;DHT22;27353;50.906;7.248;2024-02-26T02:40:33;6.20;99.90
41664;DHT22;27353;50.906;7.248;2024-02-26T02:42:59;6.20;99.90
41664;DHT22;27353;50.906;7.248;2024-02-26T02:45:27;6.20;99.90
41664;DHT22;27353;50.906;7.248;2024-02-26T02:47:53;6.20;99.90
41664;DHT22;27353;50.906;7.248;2024-02-26T02:50:18;6.20;99.90
41664;DHT22;27353;50.906;7.248;2024-02-26T02:52:44;6.20;99.90
41664;DHT22;27353;50.906;7.248;2024-02-26T02:55:09;6.20;99.90
41664;DHT22;27353;50.906;7.248;2024-02-26T02:57:35;6.10;99.90
41664;DHT22;27353;50.906;7.248;2024-02-26T03:00:07;6.10;99.90
41664;DHT22;27353;50.906;7.248;2024-02-26T03:02:33;6.10;99.90
41664;DHT22;27353;50.906;7.248;2024-02-26T03:05:04;6.10;99.90
41664;DHT22;27353;50.906;7.248;2024-02-26T03:07:29;6.10;99.90
41664;DHT22;27353;50.906;7.248;2024-02-26T03:09:55;6.10;99.90
41664;DHT22;27353;50.906;7.248;2024-02-26T03:12:21;6.10;99.90
41664;DHT22;27353;50.906;7.248;2024-02-26T03:14:46;6.10;99.90
41664;DHT22;27353;50.906;7.248;2024-02-26T03:17:12;6.10;99.90
41664;DHT22;27353;50.906;7.248;2024-02-26T03:19:37;6.10;99.90
41664;DHT22;27353;50.906;7.248;2024-02-26T03:22:03;6.10;99.90
41664;DHT22;27353;50.906;7.248;2024-02-26T03:24:29;6.10;99.90
41664;DHT22;27353;50.906;7.248;2024-02-26T03:26:54;6.10;99.90
41664;DHT22;27353;50.906;7.248;2024-02-26T03:29:20;6.10;99.90
41664;DHT22;27353;50.906;7.248;2024-02-26T03:31:45;6.10;99.90
41664;DHT22;27353;50.906;7.248;2024-02-26T03:34:11;6.00;99.90
41664;DHT22;27353;50.906;7.248;2024-02-26T03:36:38;6.00;99.90
41664;DHT22;27353;50.906;7.248;2024-02-26T03:39:03;6.00;99.90
41664;DHT22;27353;50.906;7.248;2024-02-26T03:41:33;6.00;99.90
41664;DHT22;27353;50.906;7.248;2024-02-26T03:44:00;6.10;99.90
41664;DHT22;27353;50.906;7.248;2024-02-26T03:46:26;6.00;99.90
41664;DHT22;27353;50.906;7.248;2024-02-26T03:48:51;6.10;99.90
41664;DHT22;27353;50.906;7.248;2024-02-26T03:51:17;6.00;99.90
41664;DHT22;27353;50.906;7.248;2024-02-26T03:53:42;6.10;99.90
41664;DHT22;27353;50.906;7.248;2024-02-26T03:56:08;6.00;99.90
41664;DHT22;27353;50.906;7.248;2024-02-26T03:58:36;6.00;99.90
41664;DHT22;27353;50.906;7.248;2024-02-26T04:01:02;6.00;99.90
41664;DHT22;27353;50.906;7.248;2024-02-26T04:03:27;6.00;99.90
41664;DHT22;27353;50.906;7.248;2024-02-26T04:05:53;6.10;99.90
41664;DHT22;27353;50.906;7.248;2024-02-26T04:08:18;6.10;99.90
41664;DHT22;27353;50.906;7.248;2024-02-26T04:10:44;6.00;99.90
41664;DHT22;27353;50.906;7.248;2024-02-26T04:13:10;6.00;99.90
41664;DHT22;27353;50.906;7.248;2024-02-26T04:15:35;6.00;99.90
41664;DHT22;27353;50.906;7.248;2024-02-26T04:18:01;6.00;99.90
41664;DHT22;27353;50.906;7.248;2024-02-26T04:20:28;6.00;99.90
41664;DHT22;27353;50.906;7.248;2024-02-26T04:22:53;6.00;99.90
41664;DHT22;27353;50.906;7.248;2024-02-26T04:25:19;6.00;99.90
41664;DHT22;27353;50.906;7.248;2024-02-26T04:27:44;6.00;99.90
41664;DHT22;27353;50.906;7.248;2024-02-26T04:30:10;6.00;99.90
41664;DHT22;27353;50.906;7.248;2024-02-26T04:32:36;6.00;99.90
41664;DHT22;27353;50.906;7.248;2024-02-26T04:35:05;5.90;99.90
41664;DHT22;27353;50.906;7.248;2024-02-26T04:37:31;5.90;99.90
41664;DHT22;27353;50.906;7.248;2024-02-26T04:40:00;5.90;99.90
41664;DHT22;27353;50.906;7.248;2024-02-26T04:42:26;5.90;99.90
41664;DHT22;27353;50.906;7.248;2024-02-26T04:44:52;5.90;99.90
41664;DHT22;27353;50.906;7.248;2024-02-26T04:47:17;6.00;99.90
41664;DHT22;27353;50.906;7.248;2024-02-26T04:49:43;5.90;99.90
41664;DHT22;27353;50.906;7.248;2024-02-26T04:52:08;5.90;99.90
41664;DHT22;27353;50.906;7.248;2024-02-26T04:54:34;5.90;99.90
41664;DHT22;27353;50.906;7.248;2024-02-26T04:56:59;5.90;99.90
41664;DHT22;27353;50.906;7.248;2024-02-26T04:59:25;5.90;99.90
41664;DHT22;27353;50.906;7.248;2024-02-26T05:01:50;5.90;99.90
41664;DHT22;27353;50.906;7.248;2024-02-26T05:04:18;5.90;99.90
41664;DHT22;27353;50.906;7.248;2024-02-26T05:06:44;5.90;99.90
41664;DHT22;27353;50.906;7.248;2024-02-26T05:09:09;5.80;99.90
41664;DHT22;27353;50.906;7.248;2024-02-26T05:11:35;5.90;99.90
41664;DHT22;27353;50.906;7.248;2024-02-26T05:14:00;5.90;99.90
41664;DHT22;27353;50.906;7.248;2024-02-26T05:16:26;5.90;99.90
41664;DHT22;27353;50.906;7.248;2024-02-26T05:18:52;5.90;99.90
41664;DHT22;27353;50.906;7.248;2024-02-26T05:21:18;5.90;99.90
41664;DHT22;27353;50.906;7.248;2024-02-26T05:23:44;5.80;99.90
41664;DHT22;27353;50.906;7.248;2024-02-26T05:26:10;5.80;99.90
41664;DHT22;27353;50.906;7.248;2024-02-26T05:28:36;5.80;99.90
41664;DHT22;27353;50.906;7.248;2024-02-26T05:31:04;5.80;99.90
41664;DHT22;27353;50.906;7.248;2024-02-26T05:33:30;5.70;99.90
41664;DHT22;27353;50.906;7.248;2024-02-26T05:35:56;5.70;99.90
41664;DHT22;27353;50.906;7.248;2024-02-26T05:38:21;5.80;99.90
41664;DHT22;27353;50.906;7.248;2024-02-26T05:40:47;5.80;99.90
41664;DHT22;27353;50.906;7.248;2024-02-26T05:43:13;5.70;99.90
41664;DHT22;27353;50.906;7.248;2024-02-26T05:45:41;5.70;99.90
41664;DHT22;27353;50.906;7.248;2024-02-26T05:48:06;5.70;99.90
41664;DHT22;27353;50.906;7.248;2024-02-26T05:50:32;5.70;99.90
41664;DHT22;27353;50.906;7.248;2024-02-26T05:52:58;5.70;99.90
41664;DHT22;27353;50.906;7.248;2024-02-26T05:55:23;5.70;99.90
41664;DHT22;27353;50.906;7.248;2024-02-26T05:57:49;5.70;99.90
41664;DHT22;27353;50.906;7.248;2024-02-26T06:00:15;5.70;99.90
41664;DHT22;27353;50.906;7.248;2024-02-26T06:02:41;5.70;99.90
41664;DHT22;27353;50.906;7.248;2024-02-26T06:05:06;5.70;99.90
41664;DHT22;27353;50.906;7.248;2024-02-26T06:07:34;5.70;99.90
41664;DHT22;27353;50.906;7.248;2024-02-26T06:10:00;5.70;99.90
41664;DHT22;27353;50.906;7.248;2024-02-26T06:12:26;5.70;99.90
41664;DHT22;27353;50.906;7.248;2024-02-26T06:14:53;5.70;99.90
41664;DHT22;27353;50.906;7.248;2024-02-26T06:17:19;5.60;99.90
41664;DHT22;27353;50.906;7.248;2024-02-26T06:19:45;5.70;99.90
41664;DHT22;27353;50.906;7.248;2024-02-26T06:22:11;5.70;99.90
41664;DHT22;27353;50.906;7.248;2024-02-26T06:24:36;5.70;99.90
41664;DHT22;27353;50.906;7.248;2024-02-26T06:27:02;5.70;99.90
41664;DHT22;27353;50.906;7.248;2024-02-26T06:29:28;5.70;99.90
41664;DHT22;27353;50.906;7.248;2024-02-26T06:31:54;5.70;99.90
41664;DHT22;27353;50.906;7.248;2024-02-26T06:34:20;5.70;99.90
41664;DHT22;27353;50.906;7.248;2024-02-26T06:36:46;5.70;99.90
41664;DHT22;27353;50.906;7.248;2024-02-26T06:39:12;5.70;99.90
41664;DHT22;27353;50.906;7.248;2024-02-26T06:41:38;5.70;99.90
41664;DHT22;27353;50.906;7.248;2024-02-26T06:44:04;5.70;99.90
41664;DHT22;27353;50.906;7.248;2024-02-26T06:46:30;5.70;99.90
41664;DHT22;27353;50.906;7.248;2024-02-26T06:48:56;5.70;99.90
41664;DHT22;27353;50.906;7.248;2024-02-26T06:51:22;5.60;99.90
41664;DHT22;27353;50.906;7.248;2024-02-26T06:53:49;5.70;99.90
41664;DHT22;27353;50.906;7.248;2024-02-26T06:56:15;5.70;99.90
41664;DHT22;27353;50.906;7.248;2024-02-26T06:58:40;5.70;99.90
41664;DHT22;27353;50.906;7.248;2024-02-26T07:01:06;5.70;99.90
41664;DHT22;27353;50.906;7.248;2024-02-26T07:03:33;5.70;99.90
41664;DHT22;27353;50.906;7.248;2024-02-26T07:05:59;5.70;99.90
41664;DHT22;27353;50.906;7.248;2024-02-26T07:08:24;5.70;99.90
41664;DHT22;27353;50.906;7.248;2024-02-26T07:10:50;5.70;99.90
41664;DHT22;27353;50.906;7.248;2024-02-26T07:13:16;5.70;99.90
41664;DHT22;27353;50.906;7.248;2024-02-26T07:15:41;5.70;99.90
41664;DHT22;27353;50.906;7.248;2024-02-26T07:18:07;5.70;99.90
41664;DHT22;27353;50.906;7.248;2024-02-26T07:20:32;5.70;99.90
41664;DHT22;27353;50.906;7.248;2024-02-26T07:22:58;5.70;99.90
41664;DHT22;27353;50.906;7.248;2024-02-26T07:25:24;5.70;99.90
41664;DHT22;27353;50.906;7.248;2024-02-26T07:27:50;5.70;99.90
41664;DHT22;27353;50.906;7.248;2024-02-26T07:30:16;5.70;99.90
41664;DHT22;27353;50.906;7.248;2024-02-26T07:32:42;5.70;99.90
41664;DHT22;27353;50.906;7.248;2024-02-26T07:35:08;5.70;99.90
41664;DHT22;27353;50.906;7.248;2024-02-26T07:37:34;5.70;99.90
41664;DHT22;27353;50.906;7.248;2024-02-26T07:40:00;5.70;99.90
41664;DHT22;27353;50.906;7.248;2024-02-26T07:42:25;5.70;99.90
41664;DHT22;27353;50.906;7.248;2024-02-26T07:44:51;5.60;99.90
41664;DHT22;27353;50.906;7.248;2024-02-26T07:47:18;5.60;99.90
41664;DHT22;27353;50.906;7.248;2024-02-26T07:49:44;5.70;99.90
41664;DHT22;27353;50.906;7.248;2024-02-26T07:52:10;5.60;99.90
41664;DHT22;27353;50.906;7.248;2024-02-26T07:54:36;5.70;99.90
41664;DHT22;27353;50.906;7.248;2024-02-26T07:57:01;5.60;99.90
41664;DHT22;27353;50.906;7.248;2024-02-26T07:59:31;5.70;99.90
41664;DHT22;27353;50.906;7.248;2024-02-26T08:01:56;5.70;99.90
41664;DHT22;27353;50.906;7.248;2024-02-26T08:04:22;5.70;99.90
41664;DHT22;27353;50.906;7.248;2024-02-26T08:06:47;5.70;99.90
41664;DHT22;27353;50.906;7.248;2024-02-26T08:09:13;5.70;99.90
41664;DHT22;27353;50.906;7.248;2024-02-26T08:11:38;5.70;99.90
41664;DHT22;27353;50.906;7.248;2024-02-26T08:14:04;5.70;99.90
41664;DHT22;27353;50.906;7.248;2024-02-26T08:16:30;5.80;99.90
41664;DHT22;27353;50.906;7.248;2024-02-26T08:18:55;5.80;99.90
41664;DHT22;27353;50.906;7.248;2024-02-26T08:21:21;5.70;99.90
41664;DHT22;27353;50.906;7.248;2024-02-26T08:23:47;5.80;99.90
41664;DHT22;27353;50.906;7.248;2024-02-26T08:26:12;5.80;99.90
41664;DHT22;27353;50.906;7.248;2024-02-26T08:28:38;5.80;99.90
41664;DHT22;27353;50.906;7.248;2024-02-26T08:31:04;5.80;99.90
41664;DHT22;27353;50.906;7.248;2024-02-26T08:33:30;5.80;99.90
41664;DHT22;27353;50.906;7.248;2024-02-26T08:35:56;5.70;99.90
41664;DHT22;27353;50.906;7.248;2024-02-26T08:38:22;5.70;99.90
41664;DHT22;27353;50.906;7.248;2024-02-26T08:40:48;5.80;99.90
41664;DHT22;27353;50.906;7.248;2024-02-26T08:43:14;5.80;99.90
41664;DHT22;27353;50.906;7.248;2024-02-26T08:45:39;5.80;99.90
41664;DHT22;27353;50.906;7.248;2024-02-26T08:48:05;5.80;99.90
41664;DHT22;27353;50.906;7.248;2024-02-26T08:50:31;5.80;99.90
41664;DHT22;27353;50.906;7.248;2024-02-26T08:52:57;5.80;99.90
41664;DHT22;27353;50.906;7.248;2024-02-26T08:55:22;5.80;99.90
41664;DHT22;27353;50.906;7.248;2024-02-26T08:57:48;5.80;99.90
41664;DHT22;27353;50.906;7.248;2024-02-26T09:00:14;5.80;99.90
41664;DHT22;27353;50.906;7.248;2024-02-26T09:02:41;5.80;99.90
41664;DHT22;27353;50.906;7.248;2024-02-26T09:05:09;5.90;99.90
41664;DHT22;27353;50.906;7.248;2024-02-26T09:07:35;5.90;99.90
41664;DHT22;27353;50.906;7.248;2024-02-26T09:10:01;5.80;99.90
41664;DHT22;27353;50.906;7.248;2024-02-26T09:12:27;5.80;99.90
41664;DHT22;27353;50.906;7.248;2024-02-26T09:14:52;5.90;99.90
41664;DHT22;27353;50.906;7.248;2024-02-26T09:17:18;5.90;99.90
41664;DHT22;27353;50.906;7.248;2024-02-26T09:19:44;5.80;99.90
41664;DHT22;27353;50.906;7.248;2024-02-26T09:22:09;5.80;99.90
41664;DHT22;27353;50.906;7.248;2024-02-26T09:24:36;5.80;99.90
41664;DHT22;27353;50.906;7.248;2024-02-26T09:27:01;5.90;99.90
41664;DHT22;27353;50.906;7.248;2024-02-26T09:29:27;5.90;99.90
41664;DHT22;27353;50.906;7.248;2024-02-26T09:31:53;5.90;99.90
41664;DHT22;27353;50.906;7.248;2024-02-26T09:34:18;5.90;99.90
41664;DHT22;27353;50.906;7.248;2024-02-26T09:36:44;5.80;99.90
41664;DHT22;27353;50.906;7.248;2024-02-26T09:39:09;5.90;99.90
41664;DHT22;27353;50.906;7.248;2024-02-26T09:41:37;5.90;99.90
41664;DHT22;27353;50.906;7.248;2024-02-26T09:44:04;5.90;99.90
41664;DHT22;27353;50.906;7.248;2024-02-26T09:46:30;5.80;99.90
41664;DHT22;27353;50.906;7.248;2024-02-26T09:48:56;5.90;99.90
41664;DHT22;27353;50.906;7.248;2024-02-26T09:51:25;5.90;99.90
41664;DHT22;27353;50.906;7.248;2024-02-26T09:53:54;5.90;99.90
41664;DHT22;27353;50.906;7.248;2024-02-26T09:56:21;5.90;99.90
41664;DHT22;27353;50.906;7.248;2024-02-26T09:58:48;5.90;99.90
41664;DHT22;27353;50.906;7.248;2024-02-26T10:01:19;5.90;99.90
41664;DHT22;27353;50.906;7.248;2024-02-26T10:03:49;5.90;99.90
41664;DHT22;27353;50.906;7.248;2024-02-26T10:06:17;6.00;99.90
41664;DHT22;27353;50.906;7.248;2024-02-26T10:08:43;6.00;99.90
41664;DHT22;27353;50.906;7.248;2024-02-26T10:11:10;6.10;99.90
41664;DHT22;27353;50.906;7.248;2024-02-26T10:13:36;6.20;99.90
41664;DHT22;27353;50.906;7.248;2024-02-26T10:16:02;6.20;99.90
41664;DHT22;27353;50.906;7.248;2024-02-26T10:18:51;6.30;99.90
41664;DHT22;27353;50.906;7.248;2024-02-26T10:21:17;6.30;99.90
41664;DHT22;27353;50.906;7.248;2024-02-26T10:23:46;6.30;99.90
41664;DHT22;27353;50.906;7.248;2024-02-26T10:26:13;6.20;99.90
41664;DHT22;27353;50.906;7.248;2024-02-26T10:28:39;6.40;99.90
41664;DHT22;27353;50.906;7.248;2024-02-26T10:31:06;6.40;99.90
41664;DHT22;27353;50.906;7.248;2024-02-26T10:33:35;6.40;99.90
41664;DHT22;27353;50.906;7.248;2024-02-26T10:36:07;6.40;99.90
41664;DHT22;27353;50.906;7.248;2024-02-26T10:38:37;6.40;99.90
41664;DHT22;27353;50.906;7.248;2024-02-26T10:41:03;6.40;99.90
41664;DHT22;27353;50.906;7.248;2024-02-26T10:43:29;6.50;99.90
41664;DHT22;27353;50.906;7.248;2024-02-26T10:45:55;6.50;99.90
41664;DHT22;27353;50.906;7.248;2024-02-26T10:48:21;6.60;99.90
41664;DHT22;27353;50.906;7.248;2024-02-26T10:50:47;6.70;99.90
41664;DHT22;27353;50.906;7.248;2024-02-26T10:53:17;6.80;99.90
41664;DHT22;27353;50.906;7.248;2024-02-26T10:55:58;6.60;99.90
41664;DHT22;27353;50.906;7.248;2024-02-26T10:58:25;6.80;99.90
41664;DHT22;27353;50.906;7.248;2024-02-26T11:00:52;6.90;99.90
41664;DHT22;27353;50.906;7.248;2024-02-26T11:03:18;7.00;99.90
41664;DHT22;27353;50.906;7.248;2024-02-26T11:05:49;7.20;99.90
41664;DHT22;27353;50.906;7.248;2024-02-26T11:08:22;7.30;99.90
41664;DHT22;27353;50.906;7.248;2024-02-26T11:10:48;7.40;99.90
41664;DHT22;27353;50.906;7.248;2024-02-26T11:13:17;7.60;99.90
41664;DHT22;27353;50.906;7.248;2024-02-26T11:15:45;7.50;99.90
41664;DHT22;27353;50.906;7.248;2024-02-26T11:18:14;7.60;99.90
41664;DHT22;27353;50.906;7.248;2024-02-26T11:20:40;7.60;99.90
41664;DHT22;27353;50.906;7.248;2024-02-26T11:23:07;7.40;99.90
41664;DHT22;27353;50.906;7.248;2024-02-26T11:25:33;7.20;99.90
41664;DHT22;27353;50.906;7.248;2024-02-26T11:28:02;7.10;99.90
41664;DHT22;27353;50.906;7.248;2024-02-26T11:30:31;7.10;99.90
41664;DHT22;27353;50.906;7.248;2024-02-26T11:32:58;7.10;99.90
41664;DHT22;27353;50.906;7.248;2024-02-26T11:35:24;7.10;99.90
41664;DHT22;27353;50.906;7.248;2024-02-26T11:37:57;7.10;99.90
41664;DHT22;27353;50.906;7.248;2024-02-26T11:40:26;7.10;99.90
41664;DHT22;27353;50.906;7.248;2024-02-26T11:42:53;7.20;99.90
41664;DHT22;27353;50.906;7.248;2024-02-26T11:48:03;7.30;99.90
41664;DHT22;27353;50.906;7.248;2024-02-26T11:50:36;7.30;99.90
41664;DHT22;27353;50.906;7.248;2024-02-26T11:53:26;7.20;99.90
41664;DHT22;27353;50.906;7.248;2024-02-26T11:58:42;7.40;99.90
41664;DHT22;27353;50.906;7.248;2024-02-26T12:01:40;7.60;99.90
41664;DHT22;27353;50.906;7.248;2024-02-26T12:04:09;7.70;99.90
41664;DHT22;27353;50.906;7.248;2024-02-26T12:06:44;7.60;99.90
41664;DHT22;27353;50.906;7.248;2024-02-26T12:09:11;7.80;99.90
41664;DHT22;27353;50.906;7.248;2024-02-26T12:11:40;7.80;99.90
41664;DHT22;27353;50.906;7.248;2024-02-26T12:14:08;7.70;99.90
41664;DHT22;27353;50.906;7.248;2024-02-26T12:16:35;7.60;99.90
41664;DHT22;27353;50.906;7.248;2024-02-26T12:19:04;7.70;99.90
41664;DHT22;27353;50.906;7.248;2024-02-26T12:21:31;7.70;99.90
41664;DHT22;27353;50.906;7.248;2024-02-26T12:24:10;7.80;99.90
41664;DHT22;27353;50.906;7.248;2024-02-26T12:26:36;7.80;99.90
41664;DHT22;27353;50.906;7.248;2024-02-26T12:29:01;7.80;99.90
41664;DHT22;27353;50.906;7.248;2024-02-26T12:31:27;7.90;99.90
41664;DHT22;27353;50.906;7.248;2024-02-26T12:33:54;7.80;99.90
41664;DHT22;27353;50.906;7.248;2024-02-26T12:36:21;7.80;99.90
41664;DHT22;27353;50.906;7.248;2024-02-26T12:38:50;7.70;99.90
41664;DHT22;27353;50.906;7.248;2024-02-26T12:41:16;7.70;99.90
41664;DHT22;27353;50.906;7.248;2024-02-26T12:43:42;7.50;99.90
41664;DHT22;27353;50.906;7.248;2024-02-26T12:46:07;7.60;99.90
41664;DHT22;27353;50.906;7.248;2024-02-26T12:48:33;7.60;99.90
41664;DHT22;27353;50.906;7.248;2024-02-26T12:50:59;7.50;99.90
41664;DHT22;27353;50.906;7.248;2024-02-26T12:53:26;7.60;99.90
41664;DHT22;27353;50.906;7.248;2024-02-26T12:55:53;7.60;99.90
41664;DHT22;27353;50.906;7.248;2024-02-26T12:58:19;7.70;99.90
41664;DHT22;27353;50.906;7.248;2024-02-26T13:00:46;7.80;99.90
41664;DHT22;27353;50.906;7.248;2024-02-26T13:03:13;7.60;99.90
41664;DHT22;27353;50.906;7.248;2024-02-26T13:05:39;7.70;99.90
41664;DHT22;27353;50.906;7.248;2024-02-26T13:08:05;7.60;99.90
41664;DHT22;27353;50.906;7.248;2024-02-26T13:10:31;7.70;99.90
41664;DHT22;27353;50.906;7.248;2024-02-26T13:12:57;7.70;99.90
41664;DHT22;27353;50.906;7.248;2024-02-26T13:15:22;7.80;99.90
41664;DHT22;27353;50.906;7.248;2024-02-26T13:17:49;7.80;99.90
41664;DHT22;27353;50.906;7.248;2024-02-26T13:20:29;7.80;99.90
41664;DHT22;27353;50.906;7.248;2024-02-26T13:23:05;7.90;99.90
41664;DHT22;27353;50.906;7.248;2024-02-26T13:25:32;8.00;99.90
41664;DHT22;27353;50.906;7.248;2024-02-26T13:28:06;7.90;99.90
41664;DHT22;27353;50.906;7.248;2024-02-26T13:30:33;7.90;99.90
41664;DHT22;27353;50.906;7.248;2024-02-26T13:33:10;7.90;99.90
41664;DHT22;27353;50.906;7.248;2024-02-26T13:35:36;7.90;99.90
41664;DHT22;27353;50.906;7.248;2024-02-26T13:38:02;7.90;99.90
41664;DHT22;27353;50.906;7.248;2024-02-26T13:40:28;7.90;99.90
41664;DHT22;27353;50.906;7.248;2024-02-26T13:42:54;7.90;99.90
41664;DHT22;27353;50.906;7.248;2024-02-26T13:45:20;7.80;99.90
41664;DHT22;27353;50.906;7.248;2024-02-26T13:47:45;7.80;99.90
41664;DHT22;27353;50.906;7.248;2024-02-26T13:50:11;7.80;99.90
41664;DHT22;27353;50.906;7.248;2024-02-26T13:52:36;7.90;99.90
41664;DHT22;27353;50.906;7.248;2024-02-26T13:55:02;7.90;99.90
41664;DHT22;27353;50.906;7.248;2024-02-26T13:57:28;7.90;99.90
41664;DHT22;27353;50.906;7.248;2024-02-26T13:59:54;7.90;99.90
41664;DHT22;27353;50.906;7.248;2024-02-26T14:02:20;8.00;99.90
41664;DHT22;27353;50.906;7.248;2024-02-26T14:04:46;7.90;99.90
41664;DHT22;27353;50.906;7.248;2024-02-26T14:07:12;8.00;99.90
41664;DHT22;27353;50.906;7.248;2024-02-26T14:09:38;7.90;99.90
41664;DHT22;27353;50.906;7.248;2024-02-26T14:12:04;8.00;99.90
41664;DHT22;27353;50.906;7.248;2024-02-26T14:14:30;8.10;99.90
41664;DHT22;27353;50.906;7.248;2024-02-26T14:16:58;8.00;99.90
41664;DHT22;27353;50.906;7.248;2024-02-26T14:19:24;8.10;99.90
41664;DHT22;27353;50.906;7.248;2024-02-26T14:21:49;8.20;99.90
41664;DHT22;27353;50.906;7.248;2024-02-26T14:24:15;8.10;99.90
41664;DHT22;27353;50.906;7.248;2024-02-26T14:26:41;8.20;99.90
41664;DHT22;27353;50.906;7.248;2024-02-26T14:29:06;8.10;99.90
41664;DHT22;27353;50.906;7.248;2024-02-26T14:31:32;8.10;99.90
41664;DHT22;27353;50.906;7.248;2024-02-26T14:33:58;8.10;99.90
41664;DHT22;27353;50.906;7.248;2024-02-26T14:36:24;8.00;99.90
41664;DHT22;27353;50.906;7.248;2024-02-26T14:38:50;8.00;99.90
41664;DHT22;27353;50.906;7.248;2024-02-26T14:41:16;8.10;99.90
41664;DHT22;27353;50.906;7.248;2024-02-26T14:43:41;8.10;99.90
41664;DHT22;27353;50.906;7.248;2024-02-26T14:46:07;8.10;99.90
41664;DHT22;27353;50.906;7.248;2024-02-26T14:48:33;8.10;99.90
41664;DHT22;27353;50.906;7.248;2024-02-26T14:50:59;8.10;99.90
41664;DHT22;27353;50.906;7.248;2024-02-26T14:53:25;8.10;99.90
41664;DHT22;27353;50.906;7.248;2024-02-26T14:55:52;8.10;99.90
41664;DHT22;27353;50.906;7.248;2024-02-26T14:58:17;8.10;99.90
41664;DHT22;27353;50.906;7.248;2024-02-26T15:00:43;8.10;99.90
41664;DHT22;27353;50.906;7.248;2024-02-26T15:03:08;8.10;99.90
41664;DHT22;27353;50.906;7.248;2024-02-26T15:05:34;8.10;99.90
41664;DHT22;27353;50.906;7.248;2024-02-26T15:08:00;8.00;99.90
41664;DHT22;27353;50.906;7.248;2024-02-26T15:10:25;8.00;99.90
41664;DHT22;27353;50.906;7.248;2024-02-26T15:12:52;8.00;99.90
41664;DHT22;27353;50.906;7.248;2024-02-26T15:15:21;7.90;99.90
41664;DHT22;27353;50.906;7.248;2024-02-26T15:17:47;8.00;99.90
41664;DHT22;27353;50.906;7.248;2024-02-26T15:20:14;8.00;99.90
41664;DHT22;27353;50.906;7.248;2024-02-26T15:22:40;8.10;99.90
41664;DHT22;27353;50.906;7.248;2024-02-26T15:25:07;8.00;99.90
41664;DHT22;27353;50.906;7.248;2024-02-26T15:27:33;8.00;99.90
41664;DHT22;27353;50.906;7.248;2024-02-26T15:29:59;8.00;99.90
41664;DHT22;27353;50.906;7.248;2024-02-26T15:32:25;8.00;99.90
41664;DHT22;27353;50.906;7.248;2024-02-26T15:34:53;8.00;99.90
41664;DHT22;27353;50.906;7.248;2024-02-26T15:37:19;8.00;99.90
41664;DHT22;27353;50.906;7.248;2024-02-26T15:39:44;8.00;99.90
41664;DHT22;27353;50.906;7.248;2024-02-26T15:42:11;8.10;99.90
41664;DHT22;27353;50.906;7.248;2024-02-26T15:44:40;8.00;99.90
41664;DHT22;27353;50.906;7.248;2024-02-26T15:47:06;8.00;99.90